createdAt,value
2019-05-29T00:00:38.938Z,12.03
2019-05-29T00:01:38.890Z,11.87
2019-05-29T00:02:38.848Z,12.04
2019-05-29T00:03:38.818Z,11.97
2019-05-29T00:04:38.774Z,11.97
2019-05-29T00:05:38.730Z,12.04
2019-05-29T00:06:38.709Z,11.99
2019-05-29T00:07:38.654Z,11.86
2019-05-29T00:08:38.622Z,11.90
2019-05-29T00:09:38.580Z,12.00
2019-05-29T00:10:38.534Z,11.90
2019-05-29T00:11:38.498Z,11.87
2019-05-29T00:12:38.462Z,11.86
2019-05-29T00:13:38.429Z,11.87
2019-05-29T00:14:38.384Z,11.81
2019-05-29T00:15:38.341Z,11.72
2019-05-29T00:16:38.303Z,11.70
2019-05-29T00:17:38.262Z,11.78
2019-05-29T00:18:38.230Z,11.78
2019-05-29T00:19:38.188Z,11.84
2019-05-29T00:20:38.149Z,11.72
2019-05-29T00:21:38.115Z,11.70
2019-05-29T00:22:38.078Z,11.69
2019-05-29T00:23:38.029Z,11.77
2019-05-29T00:24:37.992Z,11.68
2019-05-29T00:25:37.959Z,11.81
2019-05-29T00:26:37.938Z,11.94
2019-05-29T00:27:37.877Z,11.84
2019-05-29T00:28:37.838Z,11.91
2019-05-29T00:29:37.795Z,11.68
2019-05-29T00:30:37.761Z,11.63
2019-05-29T00:31:37.723Z,11.63
2019-05-29T00:32:37.947Z,11.65
2019-05-29T00:33:37.642Z,11.69
2019-05-29T00:34:37.603Z,11.66
2019-05-29T00:35:37.567Z,11.68
2019-05-29T00:36:37.529Z,11.70
2019-05-29T00:37:37.517Z,11.69
2019-05-29T00:38:37.451Z,11.73
2019-05-29T00:39:37.411Z,11.80
2019-05-29T00:40:37.369Z,11.77
2019-05-29T00:41:37.334Z,11.77
2019-05-29T00:42:37.289Z,11.81
2019-05-29T00:43:37.259Z,11.59
2019-05-29T00:44:37.213Z,11.51
2019-05-29T00:45:37.180Z,11.50
2019-05-29T00:46:37.131Z,11.59
2019-05-29T00:47:37.094Z,11.60
2019-05-29T00:48:37.056Z,11.55
2019-05-29T00:49:37.018Z,11.55
2019-05-29T00:50:36.981Z,11.45
2019-05-29T00:51:36.942Z,11.43
2019-05-29T00:52:36.905Z,11.36
2019-05-29T00:53:36.863Z,11.50
2019-05-29T00:54:36.828Z,11.50
2019-05-29T00:55:36.780Z,11.43
2019-05-29T00:56:36.751Z,11.57
2019-05-29T00:57:36.710Z,11.54
2019-05-29T00:58:36.695Z,11.52
2019-05-29T00:59:36.626Z,11.55
2019-05-29T01:00:36.593Z,11.52
2019-05-29T01:01:36.550Z,11.59
2019-05-29T01:02:36.511Z,11.51
2019-05-29T01:03:36.472Z,11.45
2019-05-29T01:04:36.439Z,11.48
2019-05-29T01:05:36.394Z,11.54
2019-05-29T01:06:36.356Z,11.65
2019-05-29T01:07:36.313Z,11.70
2019-05-29T01:08:36.281Z,11.73
2019-05-29T01:09:36.231Z,11.80
2019-05-29T01:10:36.198Z,11.81
2019-05-29T01:11:36.155Z,11.83
2019-05-29T01:12:36.120Z,11.66
2019-05-29T01:13:36.093Z,11.70
2019-05-29T01:14:49.272Z,11.63
2019-05-29T01:15:36.007Z,11.60
2019-05-29T01:16:35.961Z,11.60
2019-05-29T01:17:35.929Z,11.54
2019-05-29T01:18:35.893Z,11.54
2019-05-29T01:19:35.845Z,11.55
2019-05-29T01:20:35.817Z,11.70
2019-05-29T01:21:35.764Z,11.60
2019-05-29T01:22:35.729Z,11.62
2019-05-29T01:23:35.689Z,11.66
2019-05-29T01:24:35.651Z,11.70
2019-05-29T01:25:35.614Z,11.66
2019-05-29T01:26:35.573Z,11.48
2019-05-29T01:27:35.531Z,11.48
2019-05-29T01:28:35.497Z,11.37
2019-05-29T01:29:35.477Z,11.36
2019-05-29T01:30:35.461Z,11.45
2019-05-29T01:31:35.381Z,11.43
2019-05-29T01:32:35.347Z,11.37
2019-05-29T01:33:35.317Z,11.33
2019-05-29T01:34:35.261Z,11.40
2019-05-29T01:35:35.237Z,11.17
2019-05-29T01:36:35.178Z,11.35
2019-05-29T01:37:35.144Z,11.43
2019-05-29T01:38:35.107Z,11.33
2019-05-29T01:39:35.060Z,11.37
2019-05-29T01:40:35.021Z,11.23
2019-05-29T01:41:34.980Z,11.33
2019-05-29T01:42:34.963Z,11.40
2019-05-29T01:43:34.918Z,11.43
2019-05-29T01:44:34.867Z,11.36
2019-05-29T01:45:34.830Z,11.29
2019-05-29T01:46:34.785Z,11.45
2019-05-29T01:47:34.750Z,11.40
2019-05-29T01:48:34.712Z,11.40
2019-05-29T01:49:34.693Z,11.40
2019-05-29T01:50:34.632Z,11.37
2019-05-29T01:51:34.592Z,11.29
2019-05-29T01:52:34.553Z,11.23
2019-05-29T01:53:34.535Z,11.40
2019-05-29T01:54:34.478Z,11.47
2019-05-29T01:55:34.438Z,11.44
2019-05-29T01:56:34.401Z,11.33
2019-05-29T01:57:34.364Z,11.41
2019-05-29T01:58:34.317Z,11.48
2019-05-29T01:59:34.283Z,11.47
2019-05-29T02:00:34.243Z,11.45
2019-05-29T02:01:34.204Z,11.32
2019-05-29T02:02:34.171Z,11.33
2019-05-29T02:03:34.148Z,11.44
2019-05-29T02:04:34.088Z,11.47
2019-05-29T02:05:34.049Z,11.48
2019-05-29T02:06:34.007Z,11.44
2019-05-29T02:07:33.967Z,11.52
2019-05-29T02:08:33.926Z,11.45
2019-05-29T02:09:33.896Z,11.47
2019-05-29T02:10:33.847Z,11.33
2019-05-29T02:11:33.811Z,11.15
2019-05-29T02:12:33.778Z,11.17
2019-05-29T02:13:33.733Z,11.11
2019-05-29T02:14:33.709Z,11.22
2019-05-29T02:15:34.395Z,11.23
2019-05-29T02:16:34.276Z,11.18
2019-05-29T02:17:35.151Z,11.08
2019-05-29T02:18:34.277Z,11.08
2019-05-29T02:19:34.210Z,10.97
2019-05-29T02:20:34.472Z,10.94
2019-05-29T02:21:33.991Z,10.92
2019-05-29T02:22:35.262Z,11.07
2019-05-29T02:23:40.192Z,10.97
2019-05-29T02:24:34.481Z,11.00
2019-05-29T02:25:37.547Z,10.94
2019-05-29T02:26:34.092Z,10.82
2019-05-29T02:27:34.235Z,10.78
2019-05-29T02:28:33.993Z,10.84
2019-05-29T02:29:35.705Z,10.75
2019-05-29T02:30:34.093Z,10.79
2019-05-29T02:31:34.185Z,10.97
2019-05-29T02:32:33.493Z,10.99
2019-05-29T02:33:34.277Z,10.90
2019-05-29T02:34:35.715Z,10.93
2019-05-29T02:35:33.460Z,10.87
2019-05-29T02:36:34.967Z,10.82
2019-05-29T02:37:33.308Z,10.82
2019-05-29T02:38:33.458Z,10.86
2019-05-29T02:39:33.570Z,10.74
2019-05-29T02:40:33.367Z,10.82
2019-05-29T02:41:32.851Z,10.87
2019-05-29T02:42:35.105Z,10.71
2019-05-29T02:43:41.225Z,10.74
2019-05-29T02:45:53.176Z,10.79
2019-05-29T02:46:36.898Z,10.64
2019-05-29T02:47:36.861Z,10.72
2019-05-29T02:48:36.819Z,10.75
2019-05-29T02:49:36.776Z,10.72
2019-05-29T02:50:36.744Z,10.74
2019-05-29T02:51:36.723Z,10.67
2019-05-29T02:52:36.665Z,10.56
2019-05-29T02:53:36.626Z,10.60
2019-05-29T02:54:36.582Z,10.48
2019-05-29T02:55:36.550Z,10.54
2019-05-29T02:56:36.506Z,10.53
2019-05-29T02:57:36.463Z,10.61
2019-05-29T02:58:36.431Z,10.51
2019-05-29T02:59:36.401Z,10.42
2019-05-29T03:00:36.345Z,10.59
2019-05-29T03:01:36.304Z,10.54
2019-05-29T03:02:36.288Z,10.61
2019-05-29T03:03:39.639Z,10.59
2019-05-29T03:04:36.207Z,10.67
2019-05-29T03:05:36.153Z,10.67
2019-05-29T03:06:36.110Z,10.71
2019-05-29T03:07:36.074Z,10.72
2019-05-29T03:08:36.036Z,10.74
2019-05-29T03:09:35.993Z,10.84
2019-05-29T03:10:35.961Z,10.84
2019-05-29T03:11:35.913Z,11.00
2019-05-29T03:12:35.874Z,10.94
2019-05-29T03:13:35.838Z,10.99
2019-05-29T03:14:35.791Z,11.04
2019-05-29T03:15:35.753Z,10.97
2019-05-29T03:16:35.721Z,10.96
2019-05-29T03:17:35.695Z,10.94
2019-05-29T03:18:35.637Z,10.94
2019-05-29T03:19:35.594Z,10.92
2019-05-29T03:20:35.566Z,10.90
2019-05-29T03:21:35.515Z,10.74
2019-05-29T03:22:35.496Z,10.84
2019-05-29T03:36:02.188Z,10.40
2019-05-29T03:37:02.096Z,10.53
2019-05-29T03:38:02.052Z,10.56
2019-05-29T03:39:02.010Z,10.61
2019-05-29T03:40:01.975Z,10.67
2019-05-29T03:41:01.933Z,10.60
2019-05-29T03:42:01.889Z,10.59
2019-05-29T03:43:01.845Z,10.57
2019-05-29T03:44:01.797Z,10.71
2019-05-29T03:45:01.756Z,10.68
2019-05-29T03:46:01.721Z,10.71
2019-05-29T03:47:01.701Z,10.87
2019-05-29T03:48:01.631Z,10.87
2019-05-29T03:49:01.596Z,10.82
2019-05-29T03:50:01.567Z,10.74
2019-05-29T03:51:01.516Z,10.68
2019-05-29T03:52:01.481Z,11.02
2019-05-29T03:53:01.437Z,11.07
2019-05-29T03:54:01.395Z,10.93
2019-05-29T03:55:01.358Z,11.04
2019-05-29T03:56:01.311Z,11.10
2019-05-29T03:57:01.273Z,10.99
2019-05-29T03:58:01.231Z,11.17
2019-05-29T03:59:01.205Z,11.08
2019-05-29T04:00:01.167Z,11.12
2019-05-29T04:01:01.111Z,11.11
2019-05-29T04:02:01.072Z,11.19
2019-05-29T04:03:01.033Z,11.14
2019-05-29T04:04:00.998Z,11.25
2019-05-29T04:05:00.954Z,11.19
2019-05-29T04:06:00.916Z,11.18
2019-05-29T04:07:00.890Z,11.19
2019-05-29T04:08:00.830Z,11.22
2019-05-29T04:09:00.794Z,11.22
2019-05-29T04:10:00.753Z,11.26
2019-05-29T04:11:00.713Z,11.25
2019-05-29T04:12:00.675Z,11.15
2019-05-29T04:13:00.635Z,11.11
2019-05-29T04:14:00.595Z,11.07
2019-05-29T04:15:00.564Z,11.05
2019-05-29T04:16:00.513Z,11.07
2019-05-29T04:17:00.699Z,11.08
2019-05-29T04:18:00.438Z,11.12
2019-05-29T04:19:00.403Z,11.07
2019-05-29T04:20:00.358Z,11.00
2019-05-29T04:21:00.316Z,10.97
2019-05-29T04:22:00.279Z,11.07
2019-05-29T04:23:00.238Z,10.97
2019-05-29T04:24:00.204Z,10.97
2019-05-29T04:25:00.171Z,11.00
2019-05-29T04:26:00.121Z,11.10
2019-05-29T04:27:00.084Z,11.12
2019-05-29T04:28:00.036Z,11.15
2019-05-29T04:29:00.002Z,11.11
2019-05-29T04:29:59.964Z,11.14
2019-05-29T04:30:59.921Z,10.42
2019-05-29T04:31:59.885Z,11.17
2019-05-29T04:32:59.844Z,11.22
2019-05-29T04:33:59.803Z,10.68
2019-05-29T04:34:59.761Z,11.36
2019-05-29T04:35:59.727Z,11.33
2019-05-29T04:36:59.686Z,11.50
2019-05-29T04:37:59.647Z,11.48
2019-05-29T04:38:59.611Z,11.47
2019-05-29T04:39:59.566Z,10.99
2019-05-29T04:40:59.530Z,11.55
2019-05-29T04:41:59.489Z,11.66
2019-05-29T04:42:59.447Z,11.73
2019-05-29T04:43:59.419Z,11.62
2019-05-29T04:44:59.370Z,11.68
2019-05-29T04:45:59.333Z,11.69
2019-05-29T04:47:10.361Z,11.73
2019-05-29T04:47:59.251Z,11.73
2019-05-29T04:48:59.215Z,11.72
2019-05-29T04:49:59.179Z,11.68
2019-05-29T04:50:59.137Z,11.81
2019-05-29T04:51:59.092Z,11.86
2019-05-29T04:52:59.059Z,11.84
2019-05-29T04:53:59.017Z,11.90
2019-05-29T04:54:58.977Z,11.87
2019-05-29T04:55:58.941Z,11.86
2019-05-29T04:56:58.899Z,11.84
2019-05-29T04:57:58.861Z,11.91
2019-05-29T04:58:58.823Z,11.88
2019-05-29T04:59:58.780Z,11.80
2019-05-29T05:00:59.633Z,12.00
2019-05-29T05:01:58.703Z,11.75
2019-05-29T05:02:58.662Z,11.80
2019-05-29T05:03:58.628Z,11.81
2019-05-29T05:04:58.588Z,11.88
2019-05-29T05:05:58.546Z,11.86
2019-05-29T05:06:58.505Z,11.77
2019-05-29T05:07:58.471Z,11.55
2019-05-29T05:08:58.434Z,11.43
2019-05-29T05:09:58.393Z,11.52
2019-05-29T05:10:58.361Z,11.44
2019-05-29T05:11:58.316Z,11.47
2019-05-29T05:12:58.274Z,11.50
2019-05-29T05:14:01.311Z,11.54
2019-05-29T05:14:58.230Z,11.45
2019-05-29T05:15:58.159Z,11.52
2019-05-29T05:16:58.122Z,11.51
2019-05-29T05:17:58.085Z,11.45
2019-05-29T05:18:58.044Z,11.48
2019-05-29T05:19:58.001Z,11.62
2019-05-29T05:20:57.961Z,11.51
2019-05-29T05:21:57.925Z,11.62
2019-05-29T05:22:57.888Z,11.72
2019-05-29T05:23:57.845Z,11.83
2019-05-29T05:24:57.815Z,11.83
2019-05-29T05:25:57.771Z,12.00
2019-05-29T05:26:57.729Z,12.09
2019-05-29T05:27:57.693Z,11.99
2019-05-29T05:28:57.654Z,12.09
2019-05-29T05:29:57.614Z,12.12
2019-05-29T05:30:57.580Z,12.07
2019-05-29T05:31:57.534Z,12.24
2019-05-29T05:32:57.497Z,12.35
2019-05-29T05:33:57.458Z,12.46
2019-05-29T05:34:57.418Z,12.49
2019-05-29T05:35:57.406Z,12.53
2019-05-29T05:36:57.343Z,12.58
2019-05-29T05:37:57.316Z,12.68
2019-05-29T05:38:57.267Z,12.80
2019-05-29T05:39:57.232Z,12.76
2019-05-29T05:40:57.191Z,12.83
2019-05-29T05:41:57.152Z,12.85
2019-05-29T05:42:57.115Z,12.68
2019-05-29T05:43:57.071Z,12.90
2019-05-29T05:44:57.036Z,12.98
2019-05-29T05:45:56.999Z,13.09
2019-05-29T05:46:56.960Z,13.15
2019-05-29T05:47:57.909Z,13.16
2019-05-29T05:48:56.886Z,13.23
2019-05-29T05:49:56.846Z,13.20
2019-05-29T05:50:56.811Z,13.39
2019-05-29T05:51:56.769Z,13.37
2019-05-29T05:52:56.730Z,13.39
2019-05-29T05:53:56.693Z,13.47
2019-05-29T05:54:56.662Z,13.57
2019-05-29T05:55:56.616Z,13.62
2019-05-29T05:56:56.577Z,13.60
2019-05-29T05:57:56.540Z,13.42
2019-05-29T05:58:56.502Z,13.42
2019-05-29T05:59:56.470Z,13.56
2019-05-29T06:00:56.428Z,13.62
2019-05-29T06:01:56.396Z,13.70
2019-05-29T06:02:56.359Z,13.81
2019-05-29T06:03:56.317Z,13.81
2019-05-29T06:04:56.276Z,13.77
2019-05-29T06:05:56.240Z,13.67
2019-05-29T06:06:56.200Z,13.81
2019-05-29T06:07:56.167Z,13.90
2019-05-29T06:08:56.128Z,13.78
2019-05-29T06:09:56.134Z,13.83
2019-05-29T06:10:56.056Z,13.72
2019-05-29T06:11:56.019Z,13.65
2019-05-29T06:12:55.985Z,13.68
2019-05-29T06:13:55.943Z,13.54
2019-05-29T06:14:55.907Z,13.65
2019-05-29T06:15:55.864Z,13.83
2019-05-29T06:16:55.831Z,13.87
2019-05-29T06:18:16.957Z,13.92
2019-05-29T06:18:55.752Z,14.11
2019-05-29T06:19:55.723Z,14.18
2019-05-29T06:20:55.687Z,14.26
2019-05-29T06:21:55.643Z,14.23
2019-05-29T06:22:55.613Z,14.11
2019-05-29T06:23:55.566Z,13.97
2019-05-29T06:24:55.546Z,14.15
2019-05-29T06:25:55.495Z,14.22
2019-05-29T06:26:55.468Z,14.28
2019-05-29T06:27:55.418Z,14.36
2019-05-29T06:28:55.382Z,14.35
2019-05-29T06:29:55.345Z,14.32
2019-05-29T06:30:55.309Z,14.26
2019-05-29T06:31:55.279Z,14.07
2019-05-29T06:32:55.239Z,14.10
2019-05-29T06:33:55.202Z,13.93
2019-05-29T06:34:55.169Z,13.77
2019-05-29T06:35:55.124Z,13.78
2019-05-29T06:36:55.089Z,13.85
2019-05-29T06:37:55.052Z,14.07
2019-05-29T06:38:55.015Z,14.18
2019-05-29T06:39:54.987Z,14.33
2019-05-29T06:40:54.967Z,14.45
2019-05-29T06:41:54.907Z,14.48
2019-05-29T06:42:54.867Z,14.44
2019-05-29T06:43:54.835Z,14.36
2019-05-29T06:44:54.799Z,14.23
2019-05-29T06:45:54.763Z,14.33
2019-05-29T06:46:54.724Z,14.36
2019-05-29T06:47:54.685Z,14.44
2019-05-29T06:49:00.340Z,14.50
2019-05-29T06:49:54.612Z,14.59
2019-05-29T06:50:57.329Z,14.66
2019-05-29T06:51:54.549Z,14.69
2019-05-29T06:52:54.505Z,14.85
2019-05-29T06:53:54.467Z,14.91
2019-05-29T06:54:54.436Z,15.06
2019-05-29T06:55:55.690Z,15.21
2019-05-29T06:56:54.358Z,15.19
2019-05-29T06:57:54.325Z,15.35
2019-05-29T06:58:54.287Z,15.25
2019-05-29T06:59:54.245Z,15.00
2019-05-29T07:00:54.215Z,14.97
2019-05-29T07:01:54.175Z,14.94
2019-05-29T07:02:54.148Z,14.92
2019-05-29T07:04:10.544Z,14.92
2019-05-29T07:04:54.067Z,14.86
2019-05-29T07:05:54.035Z,14.73
2019-05-29T07:06:53.999Z,14.79
2019-05-29T07:07:53.957Z,14.77
2019-05-29T07:08:53.922Z,14.72
2019-05-29T07:09:53.886Z,14.59
2019-05-29T07:10:53.889Z,14.53
2019-05-29T07:11:53.823Z,14.53
2019-05-29T07:12:53.778Z,14.51
2019-05-29T07:13:53.741Z,14.65
2019-05-29T07:14:53.708Z,14.77
2019-05-29T07:15:53.672Z,14.77
2019-05-29T07:16:56.280Z,14.78
2019-05-29T07:17:53.602Z,14.86
2019-05-29T07:19:23.961Z,14.88
2019-05-29T07:20:02.963Z,14.92
2019-05-29T07:20:53.487Z,14.99
2019-05-29T07:21:53.450Z,15.07
2019-05-29T07:22:53.417Z,15.15
2019-05-29T07:23:53.382Z,15.15
2019-05-29T07:24:53.357Z,15.07
2019-05-29T07:25:53.316Z,15.04
2019-05-29T07:26:53.275Z,15.15
2019-05-29T07:27:53.238Z,15.07
2019-05-29T07:29:07.679Z,15.14
2019-05-29T07:29:53.170Z,15.10
2019-05-29T07:31:00.515Z,15.09
2019-05-29T07:31:53.091Z,14.99
2019-05-29T07:32:58.747Z,14.88
2019-05-29T07:33:53.018Z,14.97
2019-05-29T07:35:03.112Z,14.97
2019-05-29T07:35:52.948Z,15.07
2019-05-29T07:36:52.925Z,15.10
2019-05-29T07:37:52.881Z,15.22
2019-05-29T07:39:02.582Z,15.11
2019-05-29T07:39:52.811Z,15.21
2019-05-29T07:40:52.767Z,15.18
2019-05-29T07:41:52.730Z,15.27
2019-05-29T07:42:56.454Z,15.24
2019-05-29T07:43:52.667Z,15.27
2019-05-29T07:44:52.629Z,15.43
2019-05-29T07:45:52.590Z,15.42
2019-05-29T07:46:52.559Z,15.52
2019-05-29T07:47:52.525Z,15.57
2019-05-29T07:48:52.486Z,15.59
2019-05-29T07:49:52.453Z,15.65
2019-05-29T07:51:06.373Z,15.61
2019-05-29T07:51:52.376Z,15.73
2019-05-29T07:52:52.434Z,15.77
2019-05-29T07:53:52.302Z,15.88
2019-05-29T07:54:52.317Z,15.88
2019-05-29T07:55:52.233Z,15.61
2019-05-29T07:56:52.200Z,15.62
2019-05-29T07:57:52.164Z,15.62
2019-05-29T07:59:01.638Z,15.64
2019-05-29T07:59:52.092Z,15.68
2019-05-29T08:01:09.647Z,15.64
2019-05-29T08:01:52.025Z,15.70
2019-05-29T08:02:51.989Z,15.62
2019-05-29T08:03:51.948Z,15.47
2019-05-29T08:04:51.909Z,15.46
2019-05-29T08:05:53.353Z,15.46
2019-05-29T08:06:54.543Z,15.35
2019-05-29T08:07:51.807Z,15.11
2019-05-29T08:08:51.779Z,15.27
2019-05-29T08:09:51.737Z,15.28
2019-05-29T08:10:51.700Z,15.33
2019-05-29T08:11:51.665Z,15.40
2019-05-29T08:12:55.562Z,15.40
2019-05-29T08:13:51.593Z,15.47
2019-05-29T08:14:51.561Z,15.52
2019-05-29T08:16:01.972Z,15.57
2019-05-29T08:16:51.496Z,15.68
2019-05-29T08:17:51.452Z,15.46
2019-05-29T08:18:52.885Z,15.27
2019-05-29T08:20:02.916Z,15.47
2019-05-29T08:20:51.356Z,15.28
2019-05-29T08:21:51.314Z,15.22
2019-05-29T08:22:51.393Z,15.33
2019-05-29T08:23:51.236Z,15.42
2019-05-29T08:24:51.214Z,15.46
2019-05-29T08:25:51.867Z,15.55
2019-05-29T08:26:51.168Z,15.59
2019-05-29T08:27:51.097Z,15.49
2019-05-29T08:28:51.270Z,15.51
2019-05-29T08:29:51.209Z,15.43
2019-05-29T08:30:55.756Z,15.24
2019-05-29T08:31:51.047Z,15.29
2019-05-29T08:32:51.302Z,15.39
2019-05-29T08:33:51.294Z,15.55
2019-05-29T08:34:51.259Z,15.64
2019-05-29T08:35:59.305Z,15.70
2019-05-29T08:37:06.005Z,15.80
2019-05-29T08:37:51.189Z,15.92
2019-05-29T08:38:51.712Z,15.94
2019-05-29T08:39:51.591Z,15.86
2019-05-29T08:40:51.497Z,15.95
2019-05-29T08:42:19.330Z,16.00
2019-05-29T08:42:51.391Z,16.05
2019-05-29T08:43:59.183Z,16.15
2019-05-29T08:45:54.963Z,16.24
2019-05-29T08:47:09.191Z,16.26
2019-05-29T08:47:54.841Z,16.35
2019-05-29T08:48:54.803Z,16.21
2019-05-29T08:49:54.799Z,16.36
2019-05-29T08:50:54.733Z,16.43
2019-05-29T08:52:10.585Z,16.41
2019-05-29T08:52:54.661Z,16.38
2019-05-29T08:53:54.917Z,16.49
2019-05-29T08:54:54.592Z,16.38
2019-05-29T08:55:54.553Z,16.41
2019-05-29T08:56:54.523Z,16.49
2019-05-29T08:57:54.480Z,16.39
2019-05-29T08:58:54.457Z,16.33
2019-05-29T08:59:54.431Z,16.39
2019-05-29T09:00:55.378Z,16.33
2019-05-29T09:01:55.614Z,16.38
2019-05-29T09:02:54.306Z,16.42
2019-05-29T09:03:54.271Z,16.35
2019-05-29T09:04:54.920Z,16.35
2019-05-29T09:06:06.886Z,16.35
2019-05-29T09:06:54.159Z,16.42
2019-05-29T09:07:54.452Z,16.61
2019-05-29T09:08:54.870Z,16.76
2019-05-29T09:09:54.067Z,16.76
2019-05-29T09:10:54.400Z,16.60
2019-05-29T09:11:54.107Z,16.43
2019-05-29T09:13:03.931Z,16.38
2019-05-29T09:13:53.917Z,16.17
2019-05-29T09:14:53.881Z,16.35
2019-05-29T09:15:53.840Z,16.24
2019-05-29T09:16:53.814Z,16.21
2019-05-29T09:17:53.777Z,16.12
2019-05-29T09:18:53.739Z,16.31
2019-05-29T09:19:53.699Z,16.36
2019-05-29T09:21:02.589Z,16.31
2019-05-29T09:21:53.633Z,16.35
2019-05-29T09:22:53.596Z,16.49
2019-05-29T09:23:53.565Z,16.64
2019-05-29T09:24:53.534Z,16.66
2019-05-29T09:25:53.492Z,16.51
2019-05-29T09:26:53.459Z,16.28
2019-05-29T09:27:53.418Z,16.32
2019-05-29T09:28:53.388Z,16.26
2019-05-29T09:29:53.348Z,16.29
2019-05-29T09:30:53.312Z,16.46
2019-05-29T09:31:53.280Z,16.41
2019-05-29T09:32:53.402Z,16.69
2019-05-29T09:33:53.205Z,16.64
2019-05-29T09:34:53.177Z,16.71
2019-05-29T09:35:53.139Z,16.86
2019-05-29T09:49:34.481Z,16.94
2019-05-29T09:50:49.578Z,17.04
2019-05-29T09:51:34.365Z,17.09
2019-05-29T09:52:34.330Z,17.09
2019-05-29T09:53:34.285Z,16.99
2019-05-29T09:54:34.337Z,16.84
2019-05-29T09:55:34.215Z,16.87
2019-05-29T09:56:34.177Z,16.86
2019-05-29T09:57:34.140Z,17.01
2019-05-29T09:58:34.104Z,16.91
2019-05-29T09:59:34.062Z,16.87
2019-05-29T10:00:34.024Z,16.89
2019-05-29T10:01:33.995Z,16.91
2019-05-29T10:02:33.956Z,17.02
2019-05-29T10:03:33.917Z,17.05
2019-05-29T10:04:33.880Z,17.15
2019-05-29T10:05:33.841Z,17.31
2019-05-29T10:06:33.808Z,17.41
2019-05-29T10:07:33.775Z,17.41
2019-05-29T10:08:33.737Z,17.45
2019-05-29T10:09:33.711Z,17.16
2019-05-29T10:10:33.671Z,17.11
2019-05-29T10:11:33.628Z,17.31
2019-05-29T10:12:33.640Z,17.34
2019-05-29T10:13:33.558Z,17.33
2019-05-29T10:14:33.530Z,17.36
2019-05-29T10:15:33.487Z,17.31
2019-05-29T10:16:33.459Z,17.51
2019-05-29T10:17:33.412Z,17.64
2019-05-29T10:18:33.380Z,17.63
2019-05-29T10:19:33.346Z,17.64
2019-05-29T10:20:33.312Z,17.74
2019-05-29T10:21:40.082Z,17.86
2019-05-29T10:22:33.237Z,17.83
2019-05-29T10:23:33.204Z,17.90
2019-05-29T10:24:33.169Z,17.85
2019-05-29T10:25:33.132Z,17.79
2019-05-29T10:26:33.106Z,17.80
2019-05-29T10:27:33.063Z,17.85
2019-05-29T10:28:49.127Z,17.60
2019-05-29T10:29:32.993Z,17.60
2019-05-29T10:30:32.958Z,17.30
2019-05-29T10:31:32.929Z,17.20
2019-05-29T10:32:32.885Z,17.05
2019-05-29T10:33:32.855Z,16.93
2019-05-29T10:34:32.818Z,17.16
2019-05-29T10:35:32.782Z,17.23
2019-05-29T10:36:32.747Z,17.27
2019-05-29T10:37:32.712Z,17.24
2019-05-29T10:38:32.677Z,17.27
2019-05-29T10:39:32.645Z,17.30
2019-05-29T10:40:32.610Z,17.52
2019-05-29T10:41:32.576Z,17.39
2019-05-29T10:42:32.556Z,17.59
2019-05-29T10:43:34.584Z,17.49
2019-05-29T10:44:32.465Z,17.57
2019-05-29T10:45:32.431Z,17.57
2019-05-29T10:46:32.403Z,17.71
2019-05-29T10:47:32.367Z,17.60
2019-05-29T10:48:32.354Z,17.63
2019-05-29T10:49:32.289Z,17.78
2019-05-29T10:50:32.258Z,17.72
2019-05-29T10:51:32.230Z,17.83
2019-05-29T10:52:32.190Z,17.80
2019-05-29T10:53:32.156Z,17.92
2019-05-29T10:54:32.118Z,17.98
2019-05-29T10:55:32.088Z,17.87
2019-05-29T10:56:32.050Z,17.86
2019-05-29T10:57:32.012Z,17.95
2019-05-29T10:58:45.819Z,18.07
2019-05-29T10:59:31.947Z,18.22
2019-05-29T11:00:31.915Z,18.29
2019-05-29T11:01:31.875Z,18.35
2019-05-29T11:02:31.840Z,18.37
2019-05-29T11:03:31.807Z,18.33
2019-05-29T11:04:31.768Z,18.19
2019-05-29T11:05:31.747Z,18.19
2019-05-29T11:06:31.708Z,18.20
2019-05-29T11:07:31.664Z,18.23
2019-05-29T11:08:31.628Z,18.29
2019-05-29T11:09:43.851Z,18.31
2019-05-29T11:10:31.560Z,18.44
2019-05-29T11:11:31.528Z,18.38
2019-05-29T11:12:31.496Z,18.44
2019-05-29T11:13:31.461Z,18.49
2019-05-29T11:14:31.424Z,18.43
2019-05-29T11:15:31.387Z,18.45
2019-05-29T11:16:31.351Z,18.34
2019-05-29T11:17:31.316Z,18.35
2019-05-29T11:18:31.302Z,18.05
2019-05-29T11:19:31.255Z,18.01
2019-05-29T11:20:31.221Z,18.01
2019-05-29T11:21:31.281Z,18.04
2019-05-29T11:22:31.192Z,18.01
2019-05-29T11:23:31.114Z,18.03
2019-05-29T11:24:31.084Z,18.15
2019-05-29T11:25:31.056Z,18.25
2019-05-29T11:26:31.011Z,18.23
2019-05-29T11:27:31.074Z,18.33
2019-05-29T11:28:30.949Z,18.45
2019-05-29T11:29:30.957Z,18.45
2019-05-29T11:30:30.951Z,18.34
2019-05-29T11:31:30.935Z,18.34
2019-05-29T11:32:30.807Z,18.28
2019-05-29T11:33:30.763Z,18.35
2019-05-29T11:34:30.732Z,18.19
2019-05-29T11:35:30.702Z,18.07
2019-05-29T11:36:30.669Z,18.07
2019-05-29T11:37:30.633Z,18.04
2019-05-29T11:38:30.593Z,18.15
2019-05-29T11:39:30.565Z,18.29
2019-05-29T11:40:30.786Z,18.25
2019-05-29T11:41:30.496Z,18.29
2019-05-29T11:42:30.459Z,18.35
2019-05-29T11:43:30.430Z,18.43
2019-05-29T11:44:30.405Z,18.45
2019-05-29T11:45:30.433Z,18.47
2019-05-29T11:46:30.319Z,18.45
2019-05-29T11:47:30.302Z,18.44
2019-05-29T11:48:30.255Z,18.45
2019-05-29T11:49:30.221Z,18.45
2019-05-29T11:50:30.186Z,18.23
2019-05-29T11:51:30.147Z,18.19
2019-05-29T11:52:42.329Z,18.37
2019-05-29T11:53:30.087Z,18.40
2019-05-29T11:54:30.047Z,18.56
2019-05-29T11:55:30.038Z,18.59
2019-05-29T11:56:29.974Z,18.59
2019-05-29T11:57:29.954Z,18.53
2019-05-29T11:58:31.501Z,18.73
2019-05-29T11:59:29.888Z,18.63
2019-05-29T12:00:29.852Z,18.56
2019-05-29T12:01:46.726Z,18.56
2019-05-29T12:02:29.773Z,18.50
2019-05-29T12:03:29.736Z,18.53
2019-05-29T12:04:29.698Z,18.53
2019-05-29T12:05:29.664Z,18.44
2019-05-29T12:06:29.642Z,18.26
2019-05-29T12:07:29.603Z,18.04
2019-05-29T12:08:29.569Z,17.83
2019-05-29T12:09:33.207Z,18.01
2019-05-29T12:10:29.495Z,17.90
2019-05-29T12:11:29.466Z,18.00
2019-05-29T12:12:29.434Z,18.11
2019-05-29T12:13:29.397Z,18.20
2019-05-29T12:14:29.358Z,18.25
2019-05-29T12:15:29.321Z,18.31
2019-05-29T12:16:29.286Z,18.26
2019-05-29T12:17:29.297Z,18.34
2019-05-29T12:18:29.219Z,18.33
2019-05-29T12:19:29.191Z,18.35
2019-05-29T12:20:29.283Z,18.47
2019-05-29T12:21:29.125Z,18.53
2019-05-29T12:22:29.085Z,18.62
2019-05-29T12:23:29.051Z,18.50
2019-05-29T12:24:29.014Z,18.49
2019-05-29T12:25:28.983Z,18.43
2019-05-29T12:26:28.944Z,18.47
2019-05-29T12:27:28.911Z,18.47
2019-05-29T12:28:28.885Z,18.59
2019-05-29T12:29:28.836Z,18.68
2019-05-29T12:30:28.807Z,18.93
2019-05-29T12:31:28.810Z,18.96
2019-05-29T12:32:28.740Z,19.00
2019-05-29T12:33:28.709Z,19.07
2019-05-29T12:34:28.668Z,19.12
2019-05-29T12:35:28.634Z,19.18
2019-05-29T12:36:28.598Z,19.26
2019-05-29T12:37:28.566Z,19.19
2019-05-29T12:38:28.533Z,19.22
2019-05-29T12:39:28.507Z,19.07
2019-05-29T12:40:28.468Z,19.08
2019-05-29T12:41:28.425Z,18.99
2019-05-29T12:42:28.394Z,18.98
2019-05-29T12:43:28.426Z,18.89
2019-05-29T12:44:28.330Z,19.07
2019-05-29T12:45:28.296Z,19.04
2019-05-29T12:46:28.258Z,18.90
2019-05-29T12:47:28.226Z,18.98
2019-05-29T12:48:28.191Z,19.02
2019-05-29T12:49:28.152Z,19.07
2019-05-29T12:50:28.128Z,19.22
2019-05-29T12:51:28.105Z,19.26
2019-05-29T12:52:28.055Z,19.27
2019-05-29T12:53:30.770Z,19.30
2019-05-29T12:54:27.989Z,19.52
2019-05-29T12:55:27.953Z,19.44
2019-05-29T12:56:27.914Z,19.26
2019-05-29T12:57:27.885Z,19.26
2019-05-29T12:58:27.849Z,19.24
2019-05-29T12:59:27.814Z,19.31
2019-05-29T13:00:27.786Z,19.55
2019-05-29T13:01:27.746Z,19.55
2019-05-29T13:02:27.720Z,19.58
2019-05-29T13:03:27.688Z,19.67
2019-05-29T13:04:27.649Z,19.64
2019-05-29T13:05:27.615Z,19.58
2019-05-29T13:06:27.578Z,19.71
2019-05-29T13:07:27.541Z,19.56
2019-05-29T13:08:27.506Z,19.62
2019-05-29T13:09:27.479Z,19.85
2019-05-29T13:10:31.104Z,19.89
2019-05-29T13:11:27.408Z,19.99
2019-05-29T13:12:27.385Z,20.03
2019-05-29T13:13:27.335Z,20.09
2019-05-29T13:14:27.306Z,20.00
2019-05-29T13:15:27.275Z,19.92
2019-05-29T13:16:27.241Z,19.76
2019-05-29T13:17:27.207Z,19.71
2019-05-29T13:18:27.170Z,19.66
2019-05-29T13:19:27.137Z,19.82